sensor_id;sensor_type;location;lat;lon;timestamp;P1;durP1;ratioP1;P2;durP2;ratioP2
48076;SDS011;33854;57.708;12.008;2022-08-11T00:01:26;7.65;;;1.40;;
48076;SDS011;33854;57.708;12.008;2022-08-11T00:03:55;7.50;;;1.42;;
48076;SDS011;33854;57.708;12.008;2022-08-11T00:06:25;4.22;;;1.75;;
48076;SDS011;33854;57.708;12.008;2022-08-11T00:08:51;4.53;;;1.63;;
48076;SDS011;33854;57.708;12.008;2022-08-11T00:11:17;3.63;;;1.40;;
48076;SDS011;33854;57.708;12.008;2022-08-11T00:13:44;3.20;;;1.38;;
48076;SDS011;33854;57.708;12.008;2022-08-11T00:16:11;3.17;;;1.42;;
48076;SDS011;33854;57.708;12.008;2022-08-11T00:18:38;9.13;;;1.55;;
48076;SDS011;33854;57.708;12.008;2022-08-11T00:21:04;3.47;;;1.17;;
48076;SDS011;33854;57.708;12.008;2022-08-11T00:23:30;3.83;;;1.58;;
48076;SDS011;33854;57.708;12.008;2022-08-11T00:25:55;2.20;;;1.20;;
48076;SDS011;33854;57.708;12.008;2022-08-11T00:30:50;2.38;;;1.15;;
48076;SDS011;33854;57.708;12.008;2022-08-11T00:33:16;4.35;;;1.55;;
48076;SDS011;33854;57.708;12.008;2022-08-11T00:35:42;5.50;;;2.05;;
48076;SDS011;33854;57.708;12.008;2022-08-11T00:38:08;5.27;;;1.40;;
48076;SDS011;33854;57.708;12.008;2022-08-11T00:40:39;6.40;;;1.92;;
48076;SDS011;33854;57.708;12.008;2022-08-11T00:48:24;6.57;;;1.83;;
48076;SDS011;33854;57.708;12.008;2022-08-11T00:53:24;3.63;;;1.67;;
48076;SDS011;33854;57.708;12.008;2022-08-11T00:56:57;4.07;;;1.58;;
48076;SDS011;33854;57.708;12.008;2022-08-11T01:53:23;4.43;;;1.80;;
48076;SDS011;33854;57.708;12.008;2022-08-11T02:11:57;5.65;;;1.95;;
48076;SDS011;33854;57.708;12.008;2022-08-11T02:14:27;7.60;;;2.50;;
48076;SDS011;33854;57.708;12.008;2022-08-11T02:19:23;4.63;;;2.10;;
48076;SDS011;33854;57.708;12.008;2022-08-11T02:27:22;10.63;;;2.77;;
48076;SDS011;33854;57.708;12.008;2022-08-11T02:29:59;6.43;;;2.22;;
48076;SDS011;33854;57.708;12.008;2022-08-11T02:32:31;6.22;;;2.88;;
48076;SDS011;33854;57.708;12.008;2022-08-11T02:35:27;7.30;;;2.40;;
48076;SDS011;33854;57.708;12.008;2022-08-11T02:38:21;8.10;;;2.60;;
48076;SDS011;33854;57.708;12.008;2022-08-11T02:40:59;8.70;;;2.70;;
48076;SDS011;33854;57.708;12.008;2022-08-11T02:48:47;7.15;;;2.67;;
48076;SDS011;33854;57.708;12.008;2022-08-11T02:54:10;9.13;;;2.78;;
48076;SDS011;33854;57.708;12.008;2022-08-11T02:56:42;9.30;;;3.75;;
48076;SDS011;33854;57.708;12.008;2022-08-11T03:09:49;6.03;;;3.37;;
48076;SDS011;33854;57.708;12.008;2022-08-11T03:15:23;4.97;;;2.22;;
48076;SDS011;33854;57.708;12.008;2022-08-11T03:21:45;5.20;;;3.08;;
48076;SDS011;33854;57.708;12.008;2022-08-11T03:23:40;8.73;;;3.47;;
48076;SDS011;33854;57.708;12.008;2022-08-11T03:34:05;10.00;;;3.78;;
48076;SDS011;33854;57.708;12.008;2022-08-11T03:39:04;8.10;;;3.43;;
48076;SDS011;33854;57.708;12.008;2022-08-11T03:41:45;11.63;;;4.03;;
48076;SDS011;33854;57.708;12.008;2022-08-11T03:47:07;6.95;;;3.60;;
48076;SDS011;33854;57.708;12.008;2022-08-11T03:49:59;8.20;;;3.42;;
48076;SDS011;33854;57.708;12.008;2022-08-11T03:55:18;5.68;;;3.78;;
48076;SDS011;33854;57.708;12.008;2022-08-11T04:08:46;6.38;;;3.28;;
48076;SDS011;33854;57.708;12.008;2022-08-11T04:14:41;9.57;;;3.55;;
48076;SDS011;33854;57.708;12.008;2022-08-11T04:17:00;6.63;;;3.65;;
48076;SDS011;33854;57.708;12.008;2022-08-11T04:38:13;9.30;;;3.35;;
48076;SDS011;33854;57.708;12.008;2022-08-11T04:40:48;11.57;;;3.63;;
48076;SDS011;33854;57.708;12.008;2022-08-11T04:43:24;8.95;;;3.17;;
48076;SDS011;33854;57.708;12.008;2022-08-11T04:57:21;6.10;;;2.50;;
48076;SDS011;33854;57.708;12.008;2022-08-11T05:00:17;6.03;;;2.25;;
48076;SDS011;33854;57.708;12.008;2022-08-11T05:13:26;8.32;;;2.88;;
48076;SDS011;33854;57.708;12.008;2022-08-11T05:16:10;4.20;;;2.08;;
48076;SDS011;33854;57.708;12.008;2022-08-11T05:18:54;6.43;;;2.88;;
48076;SDS011;33854;57.708;12.008;2022-08-11T05:21:40;5.45;;;2.50;;
48076;SDS011;33854;57.708;12.008;2022-08-11T05:27:13;8.55;;;2.50;;
48076;SDS011;33854;57.708;12.008;2022-08-11T05:32:41;5.38;;;2.35;;
48076;SDS011;33854;57.708;12.008;2022-08-11T05:35:43;3.30;;;1.95;;
48076;SDS011;33854;57.708;12.008;2022-08-11T05:38:14;6.60;;;2.00;;
48076;SDS011;33854;57.708;12.008;2022-08-11T05:40:59;7.97;;;2.85;;
48076;SDS011;33854;57.708;12.008;2022-08-11T05:43:43;6.90;;;2.17;;
48076;SDS011;33854;57.708;12.008;2022-08-11T05:46:27;4.70;;;2.03;;
48076;SDS011;33854;57.708;12.008;2022-08-11T05:49:12;4.88;;;2.00;;
48076;SDS011;33854;57.708;12.008;2022-08-11T05:51:56;6.05;;;2.08;;
48076;SDS011;33854;57.708;12.008;2022-08-11T05:54:40;5.13;;;2.05;;
48076;SDS011;33854;57.708;12.008;2022-08-11T05:57:31;5.35;;;1.83;;
48076;SDS011;33854;57.708;12.008;2022-08-11T06:00:04;4.97;;;1.85;;
48076;SDS011;33854;57.708;12.008;2022-08-11T06:05:00;3.53;;;1.38;;
48076;SDS011;33854;57.708;12.008;2022-08-11T06:07:27;5.63;;;1.53;;
48076;SDS011;33854;57.708;12.008;2022-08-11T06:09:53;5.65;;;2.40;;
48076;SDS011;33854;57.708;12.008;2022-08-11T06:12:23;4.60;;;1.73;;
48076;SDS011;33854;57.708;12.008;2022-08-11T06:14:52;2.90;;;1.50;;
48076;SDS011;33854;57.708;12.008;2022-08-11T06:17:25;5.13;;;1.70;;
48076;SDS011;33854;57.708;12.008;2022-08-11T06:19:51;3.40;;;1.50;;
48076;SDS011;33854;57.708;12.008;2022-08-11T06:22:22;4.10;;;1.58;;
48076;SDS011;33854;57.708;12.008;2022-08-11T06:24:52;3.70;;;1.10;;
48076;SDS011;33854;57.708;12.008;2022-08-11T06:27:22;37.35;;;25.98;;
48076;SDS011;33854;57.708;12.008;2022-08-11T06:29:49;69.00;;;45.25;;
48076;SDS011;33854;57.708;12.008;2022-08-11T06:32:14;8.83;;;4.03;;
48076;SDS011;33854;57.708;12.008;2022-08-11T06:37:15;3.65;;;1.50;;
48076;SDS011;33854;57.708;12.008;2022-08-11T06:42:47;5.50;;;1.48;;
48076;SDS011;33854;57.708;12.008;2022-08-11T06:45:22;4.40;;;1.50;;
48076;SDS011;33854;57.708;12.008;2022-08-11T06:47:48;5.85;;;2.00;;
48076;SDS011;33854;57.708;12.008;2022-08-11T06:50:17;8.07;;;1.97;;
48076;SDS011;33854;57.708;12.008;2022-08-11T06:53:02;4.22;;;1.42;;
48076;SDS011;33854;57.708;12.008;2022-08-11T06:55:29;3.30;;;1.17;;
48076;SDS011;33854;57.708;12.008;2022-08-11T06:58:16;4.97;;;1.30;;
48076;SDS011;33854;57.708;12.008;2022-08-11T07:01:03;4.15;;;1.38;;
48076;SDS011;33854;57.708;12.008;2022-08-11T07:03:30;3.33;;;1.33;;
48076;SDS011;33854;57.708;12.008;2022-08-11T07:06:04;7.35;;;1.88;;
48076;SDS011;33854;57.708;12.008;2022-08-11T07:14:35;4.35;;;1.42;;
48076;SDS011;33854;57.708;12.008;2022-08-11T07:19:56;3.03;;;1.65;;
48076;SDS011;33854;57.708;12.008;2022-08-11T07:22:40;8.35;;;1.48;;
48076;SDS011;33854;57.708;12.008;2022-08-11T07:25:26;4.22;;;1.60;;
48076;SDS011;33854;57.708;12.008;2022-08-11T07:28:13;4.78;;;1.80;;
48076;SDS011;33854;57.708;12.008;2022-08-11T07:31:03;3.85;;;1.48;;
48076;SDS011;33854;57.708;12.008;2022-08-11T07:33:41;2.92;;;1.60;;
48076;SDS011;33854;57.708;12.008;2022-08-11T07:36:08;4.85;;;1.33;;
48076;SDS011;33854;57.708;12.008;2022-08-11T07:38:41;4.05;;;1.20;;
48076;SDS011;33854;57.708;12.008;2022-08-11T07:41:10;4.35;;;1.23;;
48076;SDS011;33854;57.708;12.008;2022-08-11T07:43:36;3.53;;;1.40;;
48076;SDS011;33854;57.708;12.008;2022-08-11T07:46:02;5.40;;;1.07;;
48076;SDS011;33854;57.708;12.008;2022-08-11T07:48:46;3.50;;;1.33;;
48076;SDS011;33854;57.708;12.008;2022-08-11T07:51:30;1.55;;;1.05;;
48076;SDS011;33854;57.708;12.008;2022-08-11T07:54:14;3.53;;;1.20;;
48076;SDS011;33854;57.708;12.008;2022-08-11T07:56:39;1.47;;;1.07;;
48076;SDS011;33854;57.708;12.008;2022-08-11T07:59:05;2.03;;;1.20;;
48076;SDS011;33854;57.708;12.008;2022-08-11T08:01:49;2.30;;;1.13;;
48076;SDS011;33854;57.708;12.008;2022-08-11T08:04:33;4.68;;;1.23;;
48076;SDS011;33854;57.708;12.008;2022-08-11T08:07:18;2.60;;;1.05;;
48076;SDS011;33854;57.708;12.008;2022-08-11T08:10:02;3.85;;;1.23;;
48076;SDS011;33854;57.708;12.008;2022-08-11T08:12:48;4.50;;;1.00;;
48076;SDS011;33854;57.708;12.008;2022-08-11T08:15:31;4.05;;;1.02;;
48076;SDS011;33854;57.708;12.008;2022-08-11T08:18:15;2.70;;;1.15;;
48076;SDS011;33854;57.708;12.008;2022-08-11T08:20:45;2.92;;;1.02;;
48076;SDS011;33854;57.708;12.008;2022-08-11T08:23:11;1.23;;;0.80;;
48076;SDS011;33854;57.708;12.008;2022-08-11T08:25:37;2.30;;;1.10;;
48076;SDS011;33854;57.708;12.008;2022-08-11T08:28:08;6.78;;;1.52;;
48076;SDS011;33854;57.708;12.008;2022-08-11T08:30:34;2.88;;;1.13;;
48076;SDS011;33854;57.708;12.008;2022-08-11T08:33:22;3.35;;;0.80;;
48076;SDS011;33854;57.708;12.008;2022-08-11T08:35:51;3.30;;;0.90;;
48076;SDS011;33854;57.708;12.008;2022-08-11T08:38:35;4.22;;;0.88;;
48076;SDS011;33854;57.708;12.008;2022-08-11T08:41:00;1.83;;;1.00;;
48076;SDS011;33854;57.708;12.008;2022-08-11T08:43:26;2.37;;;1.17;;
48076;SDS011;33854;57.708;12.008;2022-08-11T08:45:52;1.45;;;0.70;;
48076;SDS011;33854;57.708;12.008;2022-08-11T08:48:18;3.33;;;1.13;;
48076;SDS011;33854;57.708;12.008;2022-08-11T08:50:51;3.13;;;1.00;;
48076;SDS011;33854;57.708;12.008;2022-08-11T08:53:38;1.55;;;1.05;;
48076;SDS011;33854;57.708;12.008;2022-08-11T08:56:04;3.63;;;1.42;;
48076;SDS011;33854;57.708;12.008;2022-08-11T08:58:31;4.05;;;1.02;;
48076;SDS011;33854;57.708;12.008;2022-08-11T09:00:58;4.25;;;1.00;;
48076;SDS011;33854;57.708;12.008;2022-08-11T09:03:24;3.53;;;1.10;;
48076;SDS011;33854;57.708;12.008;2022-08-11T09:05:52;2.10;;;0.70;;
48076;SDS011;33854;57.708;12.008;2022-08-11T09:08:18;2.83;;;0.70;;
48076;SDS011;33854;57.708;12.008;2022-08-11T09:10:46;3.30;;;0.80;;
48076;SDS011;33854;57.708;12.008;2022-08-11T09:13:32;4.93;;;1.08;;
48076;SDS011;33854;57.708;12.008;2022-08-11T09:15:57;2.95;;;0.90;;
48076;SDS011;33854;57.708;12.008;2022-08-11T09:18:23;4.13;;;0.83;;
48076;SDS011;33854;57.708;12.008;2022-08-11T09:20:48;1.93;;;0.70;;
48076;SDS011;33854;57.708;12.008;2022-08-11T09:23:13;3.60;;;0.90;;
48076;SDS011;33854;57.708;12.008;2022-08-11T09:25:58;1.75;;;0.80;;
48076;SDS011;33854;57.708;12.008;2022-08-11T09:28:42;2.35;;;0.80;;
48076;SDS011;33854;57.708;12.008;2022-08-11T09:31:08;3.00;;;0.88;;
48076;SDS011;33854;57.708;12.008;2022-08-11T09:33:35;1.92;;;0.93;;
48076;SDS011;33854;57.708;12.008;2022-08-11T09:36:01;1.43;;;1.00;;
48076;SDS011;33854;57.708;12.008;2022-08-11T09:38:47;1.27;;;0.60;;
48076;SDS011;33854;57.708;12.008;2022-08-11T09:41:31;1.17;;;0.88;;
48076;SDS011;33854;57.708;12.008;2022-08-11T09:43:56;3.58;;;1.10;;
48076;SDS011;33854;57.708;12.008;2022-08-11T09:47:01;1.70;;;0.88;;
48076;SDS011;33854;57.708;12.008;2022-08-11T09:49:29;4.95;;;0.88;;
48076;SDS011;33854;57.708;12.008;2022-08-11T09:51:54;3.10;;;0.60;;
48076;SDS011;33854;57.708;12.008;2022-08-11T09:54:20;5.90;;;1.00;;
48076;SDS011;33854;57.708;12.008;2022-08-11T09:56:47;1.73;;;0.77;;
48076;SDS011;33854;57.708;12.008;2022-08-11T09:59:31;2.35;;;0.98;;
48076;SDS011;33854;57.708;12.008;2022-08-11T10:01:58;2.33;;;0.90;;
48076;SDS011;33854;57.708;12.008;2022-08-11T10:04:30;5.25;;;1.20;;
48076;SDS011;33854;57.708;12.008;2022-08-11T10:06:59;4.93;;;1.08;;
48076;SDS011;33854;57.708;12.008;2022-08-11T10:11:59;2.33;;;0.70;;
48076;SDS011;33854;57.708;12.008;2022-08-11T10:14:27;1.55;;;0.70;;
48076;SDS011;33854;57.708;12.008;2022-08-11T10:19:37;1.23;;;0.90;;
48076;SDS011;33854;57.708;12.008;2022-08-11T10:22:03;2.37;;;0.70;;
48076;SDS011;33854;57.708;12.008;2022-08-11T10:24:52;3.28;;;0.80;;
48076;SDS011;33854;57.708;12.008;2022-08-11T10:27:36;2.30;;;0.60;;
48076;SDS011;33854;57.708;12.008;2022-08-11T10:30:03;1.17;;;0.80;;
48076;SDS011;33854;57.708;12.008;2022-08-11T10:32:46;2.42;;;0.90;;
48076;SDS011;33854;57.708;12.008;2022-08-11T10:35:32;2.95;;;1.95;;
48076;SDS011;33854;57.708;12.008;2022-08-11T10:37:58;6.60;;;1.77;;
48076;SDS011;33854;57.708;12.008;2022-08-11T10:40:24;27.35;;;13.55;;
48076;SDS011;33854;57.708;12.008;2022-08-11T10:42:50;57.07;;;26.93;;
48076;SDS011;33854;57.708;12.008;2022-08-11T10:45:34;32.10;;;13.32;;
48076;SDS011;33854;57.708;12.008;2022-08-11T10:48:20;28.45;;;11.50;;
48076;SDS011;33854;57.708;12.008;2022-08-11T10:53:29;16.88;;;8.38;;
48076;SDS011;33854;57.708;12.008;2022-08-11T10:56:13;16.35;;;6.78;;
48076;SDS011;33854;57.708;12.008;2022-08-11T10:58:57;7.53;;;4.13;;
48076;SDS011;33854;57.708;12.008;2022-08-11T11:01:23;10.20;;;5.03;;
48076;SDS011;33854;57.708;12.008;2022-08-11T11:03:50;10.20;;;3.47;;
48076;SDS011;33854;57.708;12.008;2022-08-11T11:11:36;7.95;;;3.60;;
48076;SDS011;33854;57.708;12.008;2022-08-11T11:14:21;5.50;;;2.83;;
48076;SDS011;33854;57.708;12.008;2022-08-11T11:17:05;6.13;;;2.75;;
48076;SDS011;33854;57.708;12.008;2022-08-11T11:19:37;2.58;;;1.55;;
48076;SDS011;33854;57.708;12.008;2022-08-11T11:22:03;1.75;;;1.25;;
48076;SDS011;33854;57.708;12.008;2022-08-11T11:24:55;1.08;;;0.77;;
48076;SDS011;33854;57.708;12.008;2022-08-11T11:27:31;3.67;;;2.03;;
48076;SDS011;33854;57.708;12.008;2022-08-11T11:30:06;3.00;;;1.50;;
48076;SDS011;33854;57.708;12.008;2022-08-11T11:37:45;5.18;;;1.20;;
48076;SDS011;33854;57.708;12.008;2022-08-11T11:40:13;0.85;;;0.80;;
48076;SDS011;33854;57.708;12.008;2022-08-11T11:42:40;1.20;;;1.08;;
48076;SDS011;33854;57.708;12.008;2022-08-11T11:45:06;1.00;;;0.88;;
48076;SDS011;33854;57.708;12.008;2022-08-11T11:47:32;1.58;;;0.90;;
48076;SDS011;33854;57.708;12.008;2022-08-11T11:49:58;0.70;;;0.70;;
48076;SDS011;33854;57.708;12.008;2022-08-11T11:52:23;1.60;;;1.07;;
48076;SDS011;33854;57.708;12.008;2022-08-11T11:54:51;1.63;;;0.70;;
48076;SDS011;33854;57.708;12.008;2022-08-11T11:57:17;1.58;;;1.10;;
48076;SDS011;33854;57.708;12.008;2022-08-11T12:00:05;1.20;;;1.05;;
48076;SDS011;33854;57.708;12.008;2022-08-11T12:02:50;0.88;;;0.55;;
48076;SDS011;33854;57.708;12.008;2022-08-11T12:05:16;1.95;;;0.68;;
48076;SDS011;33854;57.708;12.008;2022-08-11T12:07:42;0.70;;;0.60;;
48076;SDS011;33854;57.708;12.008;2022-08-11T12:10:25;0.82;;;0.60;;
48076;SDS011;33854;57.708;12.008;2022-08-11T12:12:51;3.23;;;0.73;;
48076;SDS011;33854;57.708;12.008;2022-08-11T12:15:35;1.50;;;0.73;;
48076;SDS011;33854;57.708;12.008;2022-08-11T12:18:01;0.60;;;0.60;;
48076;SDS011;33854;57.708;12.008;2022-08-11T12:20:26;1.55;;;0.50;;
48076;SDS011;33854;57.708;12.008;2022-08-11T12:22:52;0.97;;;0.60;;
48076;SDS011;33854;57.708;12.008;2022-08-11T12:25:37;0.88;;;0.80;;
48076;SDS011;33854;57.708;12.008;2022-08-11T12:28:21;0.57;;;0.57;;
48076;SDS011;33854;57.708;12.008;2022-08-11T12:30:47;0.65;;;0.65;;
48076;SDS011;33854;57.708;12.008;2022-08-11T12:35:38;1.70;;;0.50;;
48076;SDS011;33854;57.708;12.008;2022-08-11T12:38:04;0.40;;;0.40;;
48076;SDS011;33854;57.708;12.008;2022-08-11T12:40:30;0.73;;;0.65;;
48076;SDS011;33854;57.708;12.008;2022-08-11T12:43:15;3.17;;;0.60;;
48076;SDS011;33854;57.708;12.008;2022-08-11T12:45:59;2.03;;;0.50;;
48076;SDS011;33854;57.708;12.008;2022-08-11T12:48:30;0.95;;;0.63;;
48076;SDS011;33854;57.708;12.008;2022-08-11T12:51:15;0.93;;;0.50;;
48076;SDS011;33854;57.708;12.008;2022-08-11T12:54:09;0.38;;;0.38;;
48076;SDS011;33854;57.708;12.008;2022-08-11T12:56:42;0.57;;;0.40;;
48076;SDS011;33854;57.708;12.008;2022-08-11T12:59:27;0.40;;;0.40;;
48076;SDS011;33854;57.708;12.008;2022-08-11T13:02:14;0.25;;;0.25;;
48076;SDS011;33854;57.708;12.008;2022-08-11T13:04:59;0.43;;;0.40;;
48076;SDS011;33854;57.708;12.008;2022-08-11T13:07:26;0.63;;;0.30;;
48076;SDS011;33854;57.708;12.008;2022-08-11T13:09:52;0.30;;;0.30;;
48076;SDS011;33854;57.708;12.008;2022-08-11T13:12:19;0.45;;;0.22;;
48076;SDS011;33854;57.708;12.008;2022-08-11T13:15:03;0.40;;;0.28;;
48076;SDS011;33854;57.708;12.008;2022-08-11T13:19:54;0.55;;;0.20;;
48076;SDS011;33854;57.708;12.008;2022-08-11T13:22:21;0.22;;;0.22;;
48076;SDS011;33854;57.708;12.008;2022-08-11T13:24:48;0.68;;;0.50;;
48076;SDS011;33854;57.708;12.008;2022-08-11T13:27:15;0.65;;;0.65;;
48076;SDS011;33854;57.708;12.008;2022-08-11T13:29:42;0.47;;;0.45;;
48076;SDS011;33854;57.708;12.008;2022-08-11T13:32:10;1.75;;;0.43;;
48076;SDS011;33854;57.708;12.008;2022-08-11T13:37:05;3.67;;;0.40;;
48076;SDS011;33854;57.708;12.008;2022-08-11T13:41:57;1.05;;;0.52;;
48076;SDS011;33854;57.708;12.008;2022-08-11T13:44:24;0.40;;;0.40;;
48076;SDS011;33854;57.708;12.008;2022-08-11T13:46:51;0.30;;;0.25;;
48076;SDS011;33854;57.708;12.008;2022-08-11T13:51:42;2.73;;;0.33;;
48076;SDS011;33854;57.708;12.008;2022-08-11T13:56:34;0.67;;;0.50;;
48076;SDS011;33854;57.708;12.008;2022-08-11T13:59:00;0.60;;;0.50;;
48076;SDS011;33854;57.708;12.008;2022-08-11T14:01:28;0.50;;;0.40;;
48076;SDS011;33854;57.708;12.008;2022-08-11T14:03:54;0.63;;;0.60;;
48076;SDS011;33854;57.708;12.008;2022-08-11T14:06:21;1.23;;;0.50;;
48076;SDS011;33854;57.708;12.008;2022-08-11T14:11:12;0.95;;;0.40;;
48076;SDS011;33854;57.708;12.008;2022-08-11T14:14:08;4.30;;;0.47;;
48076;SDS011;33854;57.708;12.008;2022-08-11T14:16:38;0.55;;;0.43;;
48076;SDS011;33854;57.708;12.008;2022-08-11T14:19:04;1.00;;;0.40;;
48076;SDS011;33854;57.708;12.008;2022-08-11T14:21:35;1.55;;;0.40;;
48076;SDS011;33854;57.708;12.008;2022-08-11T14:24:19;1.55;;;0.40;;
48076;SDS011;33854;57.708;12.008;2022-08-11T14:26:45;1.05;;;0.50;;
48076;SDS011;33854;57.708;12.008;2022-08-11T14:29:12;0.40;;;0.30;;
48076;SDS011;33854;57.708;12.008;2022-08-11T14:31:48;0.30;;;0.30;;
48076;SDS011;33854;57.708;12.008;2022-08-11T14:34:14;1.13;;;0.47;;
48076;SDS011;33854;57.708;12.008;2022-08-11T14:36:42;1.05;;;0.60;;
48076;SDS011;33854;57.708;12.008;2022-08-11T14:39:09;0.30;;;0.30;;
48076;SDS011;33854;57.708;12.008;2022-08-11T14:41:37;1.45;;;0.30;;
48076;SDS011;33854;57.708;12.008;2022-08-11T14:44:21;1.55;;;0.50;;
48076;SDS011;33854;57.708;12.008;2022-08-11T14:47:05;0.47;;;0.32;;
48076;SDS011;33854;57.708;12.008;2022-08-11T14:49:35;0.40;;;0.40;;
48076;SDS011;33854;57.708;12.008;2022-08-11T14:52:02;0.73;;;0.60;;
48076;SDS011;33854;57.708;12.008;2022-08-11T14:54:29;0.50;;;0.50;;
48076;SDS011;33854;57.708;12.008;2022-08-11T14:57:13;2.65;;;0.57;;
48076;SDS011;33854;57.708;12.008;2022-08-11T14:59:38;0.60;;;0.50;;
48076;SDS011;33854;57.708;12.008;2022-08-11T15:02:04;2.63;;;0.63;;
48076;SDS011;33854;57.708;12.008;2022-08-11T15:04:48;0.90;;;0.68;;
48076;SDS011;33854;57.708;12.008;2022-08-11T15:07:14;0.98;;;0.40;;
48076;SDS011;33854;57.708;12.008;2022-08-11T15:09:40;1.65;;;0.70;;
48076;SDS011;33854;57.708;12.008;2022-08-11T15:12:08;0.70;;;0.50;;
48076;SDS011;33854;57.708;12.008;2022-08-11T15:14:34;0.75;;;0.40;;
48076;SDS011;33854;57.708;12.008;2022-08-11T15:17:18;0.60;;;0.50;;
48076;SDS011;33854;57.708;12.008;2022-08-11T15:19:43;2.70;;;0.50;;
48076;SDS011;33854;57.708;12.008;2022-08-11T15:22:29;1.88;;;0.50;;
48076;SDS011;33854;57.708;12.008;2022-08-11T15:25:13;0.60;;;0.45;;
48076;SDS011;33854;57.708;12.008;2022-08-11T15:27:39;0.98;;;0.60;;
48076;SDS011;33854;57.708;12.008;2022-08-11T15:30:23;1.75;;;0.28;;
48076;SDS011;33854;57.708;12.008;2022-08-11T15:33:09;4.18;;;0.60;;
48076;SDS011;33854;57.708;12.008;2022-08-11T15:35:53;1.47;;;0.50;;
48076;SDS011;33854;57.708;12.008;2022-08-11T15:38:39;4.15;;;2.35;;
48076;SDS011;33854;57.708;12.008;2022-08-11T15:41:05;1.02;;;0.70;;
48076;SDS011;33854;57.708;12.008;2022-08-11T15:43:53;0.70;;;0.70;;
48076;SDS011;33854;57.708;12.008;2022-08-11T15:46:44;1.27;;;0.68;;
48076;SDS011;33854;57.708;12.008;2022-08-11T15:49:12;3.50;;;0.70;;
48076;SDS011;33854;57.708;12.008;2022-08-11T15:51:42;1.23;;;0.60;;
48076;SDS011;33854;57.708;12.008;2022-08-11T15:54:10;1.83;;;0.73;;
48076;SDS011;33854;57.708;12.008;2022-08-11T15:56:37;1.48;;;0.70;;
48076;SDS011;33854;57.708;12.008;2022-08-11T15:59:03;1.73;;;0.60;;
48076;SDS011;33854;57.708;12.008;2022-08-11T16:01:48;4.63;;;0.60;;
48076;SDS011;33854;57.708;12.008;2022-08-11T16:04:34;0.38;;;0.38;;
48076;SDS011;33854;57.708;12.008;2022-08-11T16:07:02;1.08;;;0.60;;
48076;SDS011;33854;57.708;12.008;2022-08-11T16:09:36;1.65;;;0.60;;
48076;SDS011;33854;57.708;12.008;2022-08-11T16:12:03;0.60;;;0.60;;
48076;SDS011;33854;57.708;12.008;2022-08-11T16:14:32;1.60;;;0.75;;
48076;SDS011;33854;57.708;12.008;2022-08-11T16:17:17;1.08;;;0.60;;
48076;SDS011;33854;57.708;12.008;2022-08-11T16:19:43;0.45;;;0.45;;
48076;SDS011;33854;57.708;12.008;2022-08-11T16:22:10;3.25;;;0.70;;
48076;SDS011;33854;57.708;12.008;2022-08-11T16:24:37;2.88;;;0.52;;
48076;SDS011;33854;57.708;12.008;2022-08-11T16:27:03;2.35;;;0.68;;
48076;SDS011;33854;57.708;12.008;2022-08-11T16:29:30;1.85;;;0.68;;
48076;SDS011;33854;57.708;12.008;2022-08-11T16:31:56;3.72;;;3.42;;
48076;SDS011;33854;57.708;12.008;2022-08-11T16:34:41;1.13;;;0.88;;
48076;SDS011;33854;57.708;12.008;2022-08-11T16:37:26;1.70;;;0.60;;
48076;SDS011;33854;57.708;12.008;2022-08-11T16:40:10;1.15;;;0.85;;
48076;SDS011;33854;57.708;12.008;2022-08-11T16:42:36;1.60;;;0.60;;
48076;SDS011;33854;57.708;12.008;2022-08-11T16:48:05;2.58;;;0.80;;
48076;SDS011;33854;57.708;12.008;2022-08-11T16:50:31;3.05;;;0.77;;
48076;SDS011;33854;57.708;12.008;2022-08-11T16:52:57;0.50;;;0.50;;
48076;SDS011;33854;57.708;12.008;2022-08-11T16:55:22;0.83;;;0.50;;
48076;SDS011;33854;57.708;12.008;2022-08-11T16:57:48;0.93;;;0.60;;
48076;SDS011;33854;57.708;12.008;2022-08-11T17:00:32;0.65;;;0.60;;
48076;SDS011;33854;57.708;12.008;2022-08-11T17:02:58;1.80;;;0.70;;
48076;SDS011;33854;57.708;12.008;2022-08-11T17:05:45;2.15;;;0.70;;
48076;SDS011;33854;57.708;12.008;2022-08-11T17:08:34;1.77;;;0.60;;
48076;SDS011;33854;57.708;12.008;2022-08-11T17:11:18;0.90;;;0.80;;
48076;SDS011;33854;57.708;12.008;2022-08-11T17:14:08;0.43;;;0.40;;
48076;SDS011;33854;57.708;12.008;2022-08-11T17:16:36;3.20;;;1.48;;
48076;SDS011;33854;57.708;12.008;2022-08-11T17:19:16;2.83;;;1.10;;
48076;SDS011;33854;57.708;12.008;2022-08-11T17:21:44;1.38;;;0.75;;
48076;SDS011;33854;57.708;12.008;2022-08-11T17:24:29;1.30;;;0.60;;
48076;SDS011;33854;57.708;12.008;2022-08-11T17:26:56;1.55;;;0.90;;
48076;SDS011;33854;57.708;12.008;2022-08-11T17:31:47;0.87;;;0.60;;
48076;SDS011;33854;57.708;12.008;2022-08-11T17:34:32;0.80;;;0.43;;
48076;SDS011;33854;57.708;12.008;2022-08-11T17:37:16;1.03;;;0.60;;
48076;SDS011;33854;57.708;12.008;2022-08-11T17:42:07;0.30;;;0.30;;
48076;SDS011;33854;57.708;12.008;2022-08-11T17:44:51;1.65;;;0.70;;
48076;SDS011;33854;57.708;12.008;2022-08-11T17:47:35;2.83;;;0.60;;
48076;SDS011;33854;57.708;12.008;2022-08-11T17:50:28;1.85;;;0.80;;
48076;SDS011;33854;57.708;12.008;2022-08-11T17:55:38;1.02;;;0.52;;
48076;SDS011;33854;57.708;12.008;2022-08-11T17:58:22;0.40;;;0.40;;
48076;SDS011;33854;57.708;12.008;2022-08-11T18:01:07;1.95;;;0.47;;
48076;SDS011;33854;57.708;12.008;2022-08-11T18:03:34;0.90;;;0.35;;
48076;SDS011;33854;57.708;12.008;2022-08-11T18:06:03;1.10;;;0.38;;
48076;SDS011;33854;57.708;12.008;2022-08-11T18:08:30;1.38;;;0.70;;
48076;SDS011;33854;57.708;12.008;2022-08-11T18:11:16;1.90;;;0.73;;
48076;SDS011;33854;57.708;12.008;2022-08-11T18:14:01;1.42;;;0.50;;
48076;SDS011;33854;57.708;12.008;2022-08-11T18:16:45;1.55;;;0.80;;
48076;SDS011;33854;57.708;12.008;2022-08-11T18:19:29;0.73;;;0.57;;
48076;SDS011;33854;57.708;12.008;2022-08-11T18:22:17;1.67;;;0.55;;
48076;SDS011;33854;57.708;12.008;2022-08-11T18:25:05;2.47;;;0.55;;
48076;SDS011;33854;57.708;12.008;2022-08-11T18:27:50;2.33;;;0.80;;
48076;SDS011;33854;57.708;12.008;2022-08-11T18:30:36;1.80;;;0.68;;
48076;SDS011;33854;57.708;12.008;2022-08-11T18:33:21;0.60;;;0.60;;
48076;SDS011;33854;57.708;12.008;2022-08-11T18:36:07;1.42;;;0.52;;
48076;SDS011;33854;57.708;12.008;2022-08-11T18:38:54;1.45;;;0.85;;
48076;SDS011;33854;57.708;12.008;2022-08-11T18:41:39;0.50;;;0.50;;
48076;SDS011;33854;57.708;12.008;2022-08-11T18:44:25;1.75;;;0.70;;
48076;SDS011;33854;57.708;12.008;2022-08-11T18:47:11;2.30;;;0.60;;
48076;SDS011;33854;57.708;12.008;2022-08-11T18:49:56;2.08;;;1.00;;
48076;SDS011;33854;57.708;12.008;2022-08-11T18:52:41;7.43;;;1.20;;
48076;SDS011;33854;57.708;12.008;2022-08-11T18:55:25;0.98;;;0.60;;
48076;SDS011;33854;57.708;12.008;2022-08-11T18:58:11;1.70;;;0.70;;
48076;SDS011;33854;57.708;12.008;2022-08-11T19:00:57;3.70;;;0.88;;
48076;SDS011;33854;57.708;12.008;2022-08-11T19:03:42;2.03;;;0.65;;
48076;SDS011;33854;57.708;12.008;2022-08-11T19:06:26;2.42;;;0.98;;
48076;SDS011;33854;57.708;12.008;2022-08-11T19:09:12;1.20;;;0.70;;
48076;SDS011;33854;57.708;12.008;2022-08-11T19:11:57;0.57;;;0.47;;
48076;SDS011;33854;57.708;12.008;2022-08-11T19:14:42;1.23;;;0.55;;
48076;SDS011;33854;57.708;12.008;2022-08-11T19:17:27;0.70;;;0.60;;
48076;SDS011;33854;57.708;12.008;2022-08-11T19:22:57;1.52;;;0.80;;
48076;SDS011;33854;57.708;12.008;2022-08-11T19:25:42;2.00;;;1.10;;
48076;SDS011;33854;57.708;12.008;2022-08-11T19:28:25;1.45;;;1.00;;
48076;SDS011;33854;57.708;12.008;2022-08-11T19:31:10;1.95;;;0.98;;
48076;SDS011;33854;57.708;12.008;2022-08-11T19:33:55;2.20;;;0.77;;